sensor_id;sensor_type;location;lat;lon;timestamp;P1;durP1;ratioP1;P2;durP2;ratioP2
17496;SDS011;62150;43.582;1.456;2023-09-08T05:17:59;7.93;;;4.03;;
17496;SDS011;62150;43.582;1.456;2023-09-08T05:20:27;7.38;;;3.97;;
17496;SDS011;62150;43.582;1.456;2023-09-08T05:22:55;6.88;;;3.90;;
17496;SDS011;62150;43.582;1.456;2023-09-08T05:25:22;8.27;;;4.00;;
17496;SDS011;62150;43.582;1.456;2023-09-08T05:27:50;7.53;;;4.00;;
17496;SDS011;62150;43.582;1.456;2023-09-08T05:30:17;6.45;;;3.78;;
17496;SDS011;62150;43.582;1.456;2023-09-08T05:32:45;8.52;;;4.13;;
17496;SDS011;62150;43.582;1.456;2023-09-08T05:35:14;7.35;;;3.72;;
17496;SDS011;62150;43.582;1.456;2023-09-08T05:37:42;7.07;;;4.10;;
17496;SDS011;62150;43.582;1.456;2023-09-08T05:40:10;7.07;;;3.95;;
17496;SDS011;62150;43.582;1.456;2023-09-08T05:42:37;33.15;;;7.68;;
17496;SDS011;62150;43.582;1.456;2023-09-08T05:45:05;34.85;;;8.77;;
17496;SDS011;62150;43.582;1.456;2023-09-08T05:47:33;20.05;;;6.00;;
17496;SDS011;62150;43.582;1.456;2023-09-08T05:50:01;13.95;;;5.18;;
17496;SDS011;62150;43.582;1.456;2023-09-08T05:52:30;11.10;;;4.40;;
17496;SDS011;62150;43.582;1.456;2023-09-08T05:54:58;9.65;;;4.10;;
17496;SDS011;62150;43.582;1.456;2023-09-08T05:57:26;10.05;;;4.30;;
17496;SDS011;62150;43.582;1.456;2023-09-08T05:59:53;7.30;;;3.88;;
17496;SDS011;62150;43.582;1.456;2023-09-08T06:02:21;7.68;;;4.00;;
17496;SDS011;62150;43.582;1.456;2023-09-08T06:04:48;9.20;;;4.00;;
17496;SDS011;62150;43.582;1.456;2023-09-08T06:07:16;8.23;;;4.07;;
17496;SDS011;62150;43.582;1.456;2023-09-08T06:09:44;8.93;;;4.00;;
17496;SDS011;62150;43.582;1.456;2023-09-08T06:12:12;8.40;;;3.92;;
17496;SDS011;62150;43.582;1.456;2023-09-08T06:14:40;9.73;;;4.03;;
17496;SDS011;62150;43.582;1.456;2023-09-08T06:17:07;8.70;;;4.00;;
17496;SDS011;62150;43.582;1.456;2023-09-08T06:19:35;7.95;;;3.72;;
17496;SDS011;62150;43.582;1.456;2023-09-08T06:22:03;8.27;;;3.83;;
17496;SDS011;62150;43.582;1.456;2023-09-08T06:24:30;7.00;;;4.05;;
17496;SDS011;62150;43.582;1.456;2023-09-08T06:27:00;9.52;;;4.00;;
17496;SDS011;62150;43.582;1.456;2023-09-08T06:29:28;9.48;;;3.80;;
17496;SDS011;62150;43.582;1.456;2023-09-08T06:31:56;8.30;;;4.00;;
17496;SDS011;62150;43.582;1.456;2023-09-08T06:34:23;9.40;;;3.97;;
17496;SDS011;62150;43.582;1.456;2023-09-08T06:36:51;7.90;;;3.72;;
17496;SDS011;62150;43.582;1.456;2023-09-08T06:39:18;7.72;;;4.03;;
17496;SDS011;62150;43.582;1.456;2023-09-08T06:41:46;7.40;;;3.97;;
17496;SDS011;62150;43.582;1.456;2023-09-08T06:44:15;8.85;;;3.78;;
17496;SDS011;62150;43.582;1.456;2023-09-08T06:46:42;9.15;;;4.00;;
17496;SDS011;62150;43.582;1.456;2023-09-08T06:49:10;9.57;;;3.97;;
17496;SDS011;62150;43.582;1.456;2023-09-08T06:51:37;15.68;;;4.95;;
17496;SDS011;62150;43.582;1.456;2023-09-08T06:54:05;10.95;;;4.45;;
17496;SDS011;62150;43.582;1.456;2023-09-08T06:56:34;10.10;;;3.92;;
17496;SDS011;62150;43.582;1.456;2023-09-08T06:59:02;13.25;;;4.03;;
17496;SDS011;62150;43.582;1.456;2023-09-08T07:01:32;8.77;;;3.80;;
17496;SDS011;62150;43.582;1.456;2023-09-08T07:04:00;8.80;;;3.92;;
17496;SDS011;62150;43.582;1.456;2023-09-08T07:06:27;10.05;;;3.90;;
17496;SDS011;62150;43.582;1.456;2023-09-08T07:08:55;8.23;;;3.92;;
17496;SDS011;62150;43.582;1.456;2023-09-08T07:11:22;8.48;;;3.70;;
17496;SDS011;62150;43.582;1.456;2023-09-08T07:13:50;8.95;;;3.80;;
17496;SDS011;62150;43.582;1.456;2023-09-08T07:16:17;8.05;;;3.95;;
17496;SDS011;62150;43.582;1.456;2023-09-08T07:18:46;7.85;;;3.63;;
17496;SDS011;62150;43.582;1.456;2023-09-08T07:21:15;7.38;;;3.78;;
17496;SDS011;62150;43.582;1.456;2023-09-08T07:23:42;5.90;;;3.58;;
17496;SDS011;62150;43.582;1.456;2023-09-08T07:26:10;6.45;;;3.70;;
17496;SDS011;62150;43.582;1.456;2023-09-08T07:28:37;6.70;;;3.70;;
17496;SDS011;62150;43.582;1.456;2023-09-08T07:31:05;7.75;;;3.60;;
17496;SDS011;62150;43.582;1.456;2023-09-08T07:33:34;7.78;;;3.70;;
17496;SDS011;62150;43.582;1.456;2023-09-08T07:36:06;9.25;;;3.95;;
17496;SDS011;62150;43.582;1.456;2023-09-08T07:38:34;6.75;;;3.60;;
17496;SDS011;62150;43.582;1.456;2023-09-08T07:41:02;8.25;;;4.03;;
17496;SDS011;62150;43.582;1.456;2023-09-08T07:43:29;7.72;;;3.72;;
17496;SDS011;62150;43.582;1.456;2023-09-08T07:45:57;6.97;;;3.58;;
17496;SDS011;62150;43.582;1.456;2023-09-08T07:48:24;7.57;;;3.85;;
17496;SDS011;62150;43.582;1.456;2023-09-08T07:50:52;11.40;;;4.10;;
17496;SDS011;62150;43.582;1.456;2023-09-08T07:53:21;7.15;;;3.63;;
17496;SDS011;62150;43.582;1.456;2023-09-08T07:55:48;6.47;;;3.38;;
17496;SDS011;62150;43.582;1.456;2023-09-08T07:58:16;9.23;;;3.90;;
17496;SDS011;62150;43.582;1.456;2023-09-08T08:00:43;7.70;;;3.80;;
17496;SDS011;62150;43.582;1.456;2023-09-08T08:03:11;7.28;;;3.70;;
17496;SDS011;62150;43.582;1.456;2023-09-08T08:05:39;7.32;;;3.63;;
17496;SDS011;62150;43.582;1.456;2023-09-08T08:08:06;9.55;;;3.60;;
17496;SDS011;62150;43.582;1.456;2023-09-08T08:10:36;7.60;;;3.70;;
17496;SDS011;62150;43.582;1.456;2023-09-08T08:13:03;6.60;;;3.60;;
17496;SDS011;62150;43.582;1.456;2023-09-08T08:15:34;9.85;;;3.35;;
17496;SDS011;62150;43.582;1.456;2023-09-08T08:18:04;6.03;;;3.50;;
17496;SDS011;62150;43.582;1.456;2023-09-08T08:20:32;7.60;;;3.70;;
17496;SDS011;62150;43.582;1.456;2023-09-08T08:23:00;7.18;;;3.60;;
17496;SDS011;62150;43.582;1.456;2023-09-08T08:25:28;7.18;;;3.53;;
17496;SDS011;62150;43.582;1.456;2023-09-08T08:27:59;6.90;;;3.60;;
17496;SDS011;62150;43.582;1.456;2023-09-08T08:30:27;8.02;;;3.72;;
17496;SDS011;62150;43.582;1.456;2023-09-08T08:32:55;7.40;;;3.60;;
17496;SDS011;62150;43.582;1.456;2023-09-08T08:35:24;8.25;;;3.63;;
17496;SDS011;62150;43.582;1.456;2023-09-08T08:37:52;6.95;;;3.80;;
17496;SDS011;62150;43.582;1.456;2023-09-08T08:40:19;10.52;;;3.70;;
17496;SDS011;62150;43.582;1.456;2023-09-08T08:42:53;6.78;;;3.88;;
17496;SDS011;62150;43.582;1.456;2023-09-08T08:45:24;7.82;;;3.90;;
17496;SDS011;62150;43.582;1.456;2023-09-08T08:47:55;7.90;;;3.47;;
17496;SDS011;62150;43.582;1.456;2023-09-08T08:50:24;6.78;;;3.45;;
17496;SDS011;62150;43.582;1.456;2023-09-08T08:52:52;7.40;;;3.78;;
17496;SDS011;62150;43.582;1.456;2023-09-08T08:55:20;6.97;;;3.58;;
17496;SDS011;62150;43.582;1.456;2023-09-08T08:57:47;6.18;;;3.80;;
17496;SDS011;62150;43.582;1.456;2023-09-08T09:00:16;6.85;;;3.63;;
17496;SDS011;62150;43.582;1.456;2023-09-08T09:02:45;6.35;;;3.78;;
17496;SDS011;62150;43.582;1.456;2023-09-08T09:05:15;7.13;;;3.60;;
17496;SDS011;62150;43.582;1.456;2023-09-08T09:07:43;8.23;;;4.10;;
17496;SDS011;62150;43.582;1.456;2023-09-08T09:10:14;7.03;;;3.58;;
17496;SDS011;62150;43.582;1.456;2023-09-08T09:12:42;8.25;;;3.88;;
17496;SDS011;62150;43.582;1.456;2023-09-08T09:15:09;7.00;;;3.58;;
17496;SDS011;62150;43.582;1.456;2023-09-08T09:17:38;6.22;;;3.80;;
17496;SDS011;62150;43.582;1.456;2023-09-08T09:20:14;7.13;;;3.80;;
17496;SDS011;62150;43.582;1.456;2023-09-08T09:22:43;6.53;;;3.47;;
17496;SDS011;62150;43.582;1.456;2023-09-08T09:25:12;7.07;;;3.90;;
17496;SDS011;62150;43.582;1.456;2023-09-08T09:27:51;7.70;;;3.88;;
17496;SDS011;62150;43.582;1.456;2023-09-08T09:30:20;6.22;;;3.53;;
17496;SDS011;62150;43.582;1.456;2023-09-08T09:32:48;6.80;;;3.60;;
17496;SDS011;62150;43.582;1.456;2023-09-08T09:35:26;6.82;;;3.63;;
17496;SDS011;62150;43.582;1.456;2023-09-08T09:38:07;6.03;;;3.53;;
17496;SDS011;62150;43.582;1.456;2023-09-08T09:40:34;8.10;;;3.65;;
17496;SDS011;62150;43.582;1.456;2023-09-08T09:43:03;7.60;;;3.97;;
17496;SDS011;62150;43.582;1.456;2023-09-08T09:45:32;7.15;;;3.60;;
17496;SDS011;62150;43.582;1.456;2023-09-08T09:48:04;7.85;;;3.70;;
17496;SDS011;62150;43.582;1.456;2023-09-08T09:50:34;7.10;;;3.90;;
17496;SDS011;62150;43.582;1.456;2023-09-08T09:53:07;8.55;;;4.00;;
17496;SDS011;62150;43.582;1.456;2023-09-08T09:55:36;7.20;;;4.00;;
17496;SDS011;62150;43.582;1.456;2023-09-08T09:58:04;8.50;;;3.88;;
17496;SDS011;62150;43.582;1.456;2023-09-08T10:00:33;6.60;;;3.90;;
17496;SDS011;62150;43.582;1.456;2023-09-08T10:03:02;7.90;;;3.67;;
17496;SDS011;62150;43.582;1.456;2023-09-08T10:05:31;7.57;;;4.13;;
17496;SDS011;62150;43.582;1.456;2023-09-08T10:08:00;7.22;;;3.80;;
17496;SDS011;62150;43.582;1.456;2023-09-08T10:10:28;7.38;;;3.65;;
17496;SDS011;62150;43.582;1.456;2023-09-08T10:13:01;8.15;;;3.75;;
17496;SDS011;62150;43.582;1.456;2023-09-08T10:15:33;8.18;;;4.00;;
17496;SDS011;62150;43.582;1.456;2023-09-08T10:18:03;7.43;;;3.97;;
17496;SDS011;62150;43.582;1.456;2023-09-08T10:20:32;7.32;;;4.07;;
17496;SDS011;62150;43.582;1.456;2023-09-08T10:23:04;8.02;;;3.90;;
17496;SDS011;62150;43.582;1.456;2023-09-08T10:25:39;6.53;;;3.70;;
17496;SDS011;62150;43.582;1.456;2023-09-08T10:28:12;7.60;;;4.10;;
17496;SDS011;62150;43.582;1.456;2023-09-08T10:30:39;7.68;;;3.75;;
17496;SDS011;62150;43.582;1.456;2023-09-08T10:33:07;6.68;;;3.92;;
17496;SDS011;62150;43.582;1.456;2023-09-08T10:35:36;6.15;;;3.78;;
17496;SDS011;62150;43.582;1.456;2023-09-08T10:40:52;10.27;;;4.13;;
17496;SDS011;62150;43.582;1.456;2023-09-08T10:43:20;8.07;;;4.00;;
17496;SDS011;62150;43.582;1.456;2023-09-08T10:45:50;7.72;;;3.65;;
17496;SDS011;62150;43.582;1.456;2023-09-08T10:48:17;7.25;;;3.83;;
17496;SDS011;62150;43.582;1.456;2023-09-08T10:50:46;7.72;;;4.00;;
17496;SDS011;62150;43.582;1.456;2023-09-08T10:53:14;10.48;;;4.00;;
17496;SDS011;62150;43.582;1.456;2023-09-08T10:55:44;7.18;;;3.92;;
17496;SDS011;62150;43.582;1.456;2023-09-08T10:58:19;9.18;;;3.88;;
17496;SDS011;62150;43.582;1.456;2023-09-08T11:00:47;6.57;;;3.60;;
17496;SDS011;62150;43.582;1.456;2023-09-08T11:03:41;7.40;;;3.90;;
17496;SDS011;62150;43.582;1.456;2023-09-08T11:06:11;8.60;;;3.40;;
17496;SDS011;62150;43.582;1.456;2023-09-08T11:08:42;6.90;;;3.70;;
17496;SDS011;62150;43.582;1.456;2023-09-08T11:11:12;7.50;;;3.88;;
17496;SDS011;62150;43.582;1.456;2023-09-08T11:13:41;6.97;;;3.58;;
17496;SDS011;62150;43.582;1.456;2023-09-08T11:16:11;7.07;;;3.70;;
17496;SDS011;62150;43.582;1.456;2023-09-08T11:18:39;7.82;;;3.67;;
17496;SDS011;62150;43.582;1.456;2023-09-08T11:21:08;6.40;;;3.88;;
17496;SDS011;62150;43.582;1.456;2023-09-08T11:23:36;5.65;;;3.55;;
17496;SDS011;62150;43.582;1.456;2023-09-08T11:26:04;7.30;;;3.65;;
17496;SDS011;62150;43.582;1.456;2023-09-08T11:28:35;7.88;;;4.13;;
17496;SDS011;62150;43.582;1.456;2023-09-08T11:31:03;7.03;;;3.78;;
17496;SDS011;62150;43.582;1.456;2023-09-08T11:33:33;6.95;;;3.70;;
17496;SDS011;62150;43.582;1.456;2023-09-08T11:36:10;7.25;;;3.80;;
17496;SDS011;62150;43.582;1.456;2023-09-08T11:38:41;9.10;;;3.88;;
17496;SDS011;62150;43.582;1.456;2023-09-08T11:41:10;7.10;;;4.10;;
17496;SDS011;62150;43.582;1.456;2023-09-08T11:43:39;6.43;;;3.70;;
17496;SDS011;62150;43.582;1.456;2023-09-08T11:46:07;7.60;;;3.72;;
17496;SDS011;62150;43.582;1.456;2023-09-08T11:48:35;8.13;;;3.65;;
17496;SDS011;62150;43.582;1.456;2023-09-08T11:51:03;7.18;;;3.70;;
17496;SDS011;62150;43.582;1.456;2023-09-08T11:53:34;7.90;;;3.72;;
17496;SDS011;62150;43.582;1.456;2023-09-08T11:56:03;7.30;;;3.80;;
17496;SDS011;62150;43.582;1.456;2023-09-08T11:58:31;8.07;;;4.30;;
17496;SDS011;62150;43.582;1.456;2023-09-08T12:01:01;9.60;;;4.80;;
17496;SDS011;62150;43.582;1.456;2023-09-08T12:03:30;8.90;;;4.72;;
17496;SDS011;62150;43.582;1.456;2023-09-08T12:05:57;10.10;;;4.90;;
17496;SDS011;62150;43.582;1.456;2023-09-08T12:08:27;7.93;;;4.28;;
17496;SDS011;62150;43.582;1.456;2023-09-08T12:10:54;9.30;;;4.13;;
17496;SDS011;62150;43.582;1.456;2023-09-08T12:13:22;8.85;;;4.30;;
17496;SDS011;62150;43.582;1.456;2023-09-08T12:15:50;7.78;;;3.80;;
17496;SDS011;62150;43.582;1.456;2023-09-08T12:18:19;9.20;;;4.20;;
17496;SDS011;62150;43.582;1.456;2023-09-08T12:21:04;6.60;;;3.80;;
17496;SDS011;62150;43.582;1.456;2023-09-08T12:23:32;7.88;;;3.47;;
17496;SDS011;62150;43.582;1.456;2023-09-08T12:25:59;6.57;;;3.80;;
17496;SDS011;62150;43.582;1.456;2023-09-08T12:28:30;7.60;;;3.75;;
17496;SDS011;62150;43.582;1.456;2023-09-08T12:30:58;7.22;;;3.90;;
17496;SDS011;62150;43.582;1.456;2023-09-08T12:33:27;8.77;;;3.83;;
17496;SDS011;62150;43.582;1.456;2023-09-08T12:35:54;8.35;;;3.92;;
17496;SDS011;62150;43.582;1.456;2023-09-08T12:38:31;8.07;;;3.75;;
17496;SDS011;62150;43.582;1.456;2023-09-08T12:40:58;6.80;;;4.00;;
17496;SDS011;62150;43.582;1.456;2023-09-08T12:43:26;8.48;;;3.83;;
17496;SDS011;62150;43.582;1.456;2023-09-08T12:45:53;6.30;;;3.55;;
17496;SDS011;62150;43.582;1.456;2023-09-08T12:48:21;6.80;;;3.53;;
17496;SDS011;62150;43.582;1.456;2023-09-08T12:50:50;7.43;;;3.75;;
17496;SDS011;62150;43.582;1.456;2023-09-08T12:53:18;6.85;;;3.70;;
17496;SDS011;62150;43.582;1.456;2023-09-08T12:55:48;9.15;;;4.00;;
17496;SDS011;62150;43.582;1.456;2023-09-08T12:58:15;7.75;;;3.83;;
17496;SDS011;62150;43.582;1.456;2023-09-08T13:00:43;7.30;;;3.97;;
17496;SDS011;62150;43.582;1.456;2023-09-08T13:03:11;7.30;;;3.90;;
17496;SDS011;62150;43.582;1.456;2023-09-08T13:05:38;5.78;;;3.63;;
17496;SDS011;62150;43.582;1.456;2023-09-08T13:08:07;8.15;;;3.80;;
17496;SDS011;62150;43.582;1.456;2023-09-08T13:10:36;6.78;;;3.70;;
17496;SDS011;62150;43.582;1.456;2023-09-08T13:13:04;6.82;;;3.70;;
17496;SDS011;62150;43.582;1.456;2023-09-08T13:15:31;8.80;;;3.67;;
17496;SDS011;62150;43.582;1.456;2023-09-08T13:17:59;7.38;;;3.75;;
17496;SDS011;62150;43.582;1.456;2023-09-08T13:20:26;6.63;;;3.60;;
17496;SDS011;62150;43.582;1.456;2023-09-08T13:22:54;7.50;;;3.70;;
17496;SDS011;62150;43.582;1.456;2023-09-08T13:25:22;7.80;;;3.58;;
17496;SDS011;62150;43.582;1.456;2023-09-08T13:27:50;6.70;;;3.75;;
17496;SDS011;62150;43.582;1.456;2023-09-08T13:30:18;7.85;;;3.70;;
17496;SDS011;62150;43.582;1.456;2023-09-08T13:32:47;7.72;;;3.60;;
17496;SDS011;62150;43.582;1.456;2023-09-08T13:35:14;6.70;;;3.50;;
17496;SDS011;62150;43.582;1.456;2023-09-08T13:37:42;6.90;;;3.55;;
17496;SDS011;62150;43.582;1.456;2023-09-08T13:40:10;6.80;;;3.70;;
17496;SDS011;62150;43.582;1.456;2023-09-08T13:42:39;7.68;;;3.70;;
17496;SDS011;62150;43.582;1.456;2023-09-08T13:45:07;7.15;;;3.70;;
17496;SDS011;62150;43.582;1.456;2023-09-08T13:47:35;6.55;;;3.60;;
17496;SDS011;62150;43.582;1.456;2023-09-08T13:50:03;6.20;;;3.60;;
17496;SDS011;62150;43.582;1.456;2023-09-08T13:52:32;7.40;;;3.70;;
17496;SDS011;62150;43.582;1.456;2023-09-08T13:54:59;7.72;;;3.88;;
17496;SDS011;62150;43.582;1.456;2023-09-08T13:57:28;8.07;;;3.70;;
17496;SDS011;62150;43.582;1.456;2023-09-08T13:59:57;7.82;;;3.40;;
17496;SDS011;62150;43.582;1.456;2023-09-08T14:02:25;6.95;;;3.70;;
17496;SDS011;62150;43.582;1.456;2023-09-08T14:04:52;7.03;;;3.55;;
17496;SDS011;62150;43.582;1.456;2023-09-08T14:07:20;8.90;;;3.80;;
17496;SDS011;62150;43.582;1.456;2023-09-08T14:09:47;6.88;;;3.65;;
17496;SDS011;62150;43.582;1.456;2023-09-08T14:12:15;7.30;;;3.70;;
17496;SDS011;62150;43.582;1.456;2023-09-08T14:14:42;6.53;;;3.33;;
17496;SDS011;62150;43.582;1.456;2023-09-08T14:17:11;8.13;;;3.47;;
17496;SDS011;62150;43.582;1.456;2023-09-08T14:19:39;7.25;;;3.60;;
17496;SDS011;62150;43.582;1.456;2023-09-08T14:22:06;7.32;;;3.60;;
17496;SDS011;62150;43.582;1.456;2023-09-08T14:24:34;6.85;;;3.38;;
17496;SDS011;62150;43.582;1.456;2023-09-08T14:27:01;7.78;;;3.72;;
17496;SDS011;62150;43.582;1.456;2023-09-08T14:29:29;7.50;;;3.63;;
17496;SDS011;62150;43.582;1.456;2023-09-08T14:32:08;7.57;;;3.70;;
17496;SDS011;62150;43.582;1.456;2023-09-08T14:34:37;8.18;;;3.65;;
17496;SDS011;62150;43.582;1.456;2023-09-08T14:37:04;6.70;;;3.30;;
17496;SDS011;62150;43.582;1.456;2023-09-08T14:39:32;6.43;;;3.60;;
17496;SDS011;62150;43.582;1.456;2023-09-08T14:41:59;6.53;;;3.47;;
17496;SDS011;62150;43.582;1.456;2023-09-08T14:44:27;6.88;;;3.80;;
17496;SDS011;62150;43.582;1.456;2023-09-08T14:46:54;5.25;;;3.42;;
17496;SDS011;62150;43.582;1.456;2023-09-08T14:49:22;5.75;;;3.25;;
17496;SDS011;62150;43.582;1.456;2023-09-08T14:51:51;5.95;;;3.42;;
17496;SDS011;62150;43.582;1.456;2023-09-08T14:54:18;6.70;;;3.45;;
17496;SDS011;62150;43.582;1.456;2023-09-08T14:56:46;5.93;;;3.25;;
17496;SDS011;62150;43.582;1.456;2023-09-08T14:59:15;7.38;;;3.28;;
17496;SDS011;62150;43.582;1.456;2023-09-08T15:01:42;6.35;;;3.40;;
17496;SDS011;62150;43.582;1.456;2023-09-08T15:04:10;5.38;;;3.25;;
17496;SDS011;62150;43.582;1.456;2023-09-08T15:06:37;5.45;;;3.17;;
17496;SDS011;62150;43.582;1.456;2023-09-08T15:09:06;8.57;;;3.58;;
17496;SDS011;62150;43.582;1.456;2023-09-08T15:11:34;4.82;;;3.10;;
17496;SDS011;62150;43.582;1.456;2023-09-08T15:14:03;6.43;;;3.60;;
17496;SDS011;62150;43.582;1.456;2023-09-08T15:16:30;5.78;;;2.97;;
17496;SDS011;62150;43.582;1.456;2023-09-08T15:18:58;6.43;;;3.50;;
17496;SDS011;62150;43.582;1.456;2023-09-08T15:21:25;7.43;;;3.33;;
17496;SDS011;62150;43.582;1.456;2023-09-08T15:23:55;4.72;;;2.90;;
17496;SDS011;62150;43.582;1.456;2023-09-08T15:26:23;6.45;;;3.40;;
17496;SDS011;62150;43.582;1.456;2023-09-08T15:28:51;6.13;;;3.35;;
17496;SDS011;62150;43.582;1.456;2023-09-08T15:31:19;5.70;;;3.13;;
17496;SDS011;62150;43.582;1.456;2023-09-08T15:33:46;6.32;;;3.38;;
17496;SDS011;62150;43.582;1.456;2023-09-08T15:36:16;5.00;;;3.17;;
17496;SDS011;62150;43.582;1.456;2023-09-08T15:38:44;5.00;;;3.08;;
17496;SDS011;62150;43.582;1.456;2023-09-08T15:41:15;5.68;;;3.20;;
17496;SDS011;62150;43.582;1.456;2023-09-08T15:43:46;5.30;;;3.08;;
17496;SDS011;62150;43.582;1.456;2023-09-08T15:46:16;5.32;;;3.10;;
17496;SDS011;62150;43.582;1.456;2023-09-08T15:48:44;6.00;;;3.00;;
17496;SDS011;62150;43.582;1.456;2023-09-08T15:51:14;5.20;;;3.17;;
17496;SDS011;62150;43.582;1.456;2023-09-08T15:53:42;6.88;;;3.20;;
17496;SDS011;62150;43.582;1.456;2023-09-08T15:56:09;7.00;;;3.45;;
17496;SDS011;62150;43.582;1.456;2023-09-08T15:58:37;8.63;;;3.60;;
17496;SDS011;62150;43.582;1.456;2023-09-08T16:01:06;5.22;;;3.20;;
17496;SDS011;62150;43.582;1.456;2023-09-08T16:03:34;7.05;;;3.25;;
17496;SDS011;62150;43.582;1.456;2023-09-08T16:06:02;7.20;;;3.50;;
17496;SDS011;62150;43.582;1.456;2023-09-08T16:08:29;7.60;;;3.20;;
17496;SDS011;62150;43.582;1.456;2023-09-08T16:10:58;6.68;;;3.50;;
17496;SDS011;62150;43.582;1.456;2023-09-08T16:13:27;6.93;;;3.50;;
17496;SDS011;62150;43.582;1.456;2023-09-08T16:15:56;5.07;;;2.97;;
17496;SDS011;62150;43.582;1.456;2023-09-08T16:18:25;5.10;;;3.30;;
17496;SDS011;62150;43.582;1.456;2023-09-08T16:20:52;5.57;;;3.17;;
17496;SDS011;62150;43.582;1.456;2023-09-08T16:23:20;5.10;;;3.08;;
17496;SDS011;62150;43.582;1.456;2023-09-08T16:25:47;5.32;;;3.08;;
17496;SDS011;62150;43.582;1.456;2023-09-08T16:28:16;6.75;;;3.42;;
17496;SDS011;62150;43.582;1.456;2023-09-08T16:30:43;7.53;;;3.60;;
17496;SDS011;62150;43.582;1.456;2023-09-08T16:33:11;6.70;;;3.40;;
17496;SDS011;62150;43.582;1.456;2023-09-08T16:35:41;6.90;;;3.28;;
17496;SDS011;62150;43.582;1.456;2023-09-08T16:38:08;6.20;;;3.30;;
17496;SDS011;62150;43.582;1.456;2023-09-08T16:40:37;6.45;;;3.53;;
17496;SDS011;62150;43.582;1.456;2023-09-08T16:43:05;6.07;;;3.28;;
17496;SDS011;62150;43.582;1.456;2023-09-08T16:45:32;6.20;;;3.30;;
17496;SDS011;62150;43.582;1.456;2023-09-08T16:48:03;6.43;;;3.38;;
17496;SDS011;62150;43.582;1.456;2023-09-08T16:50:31;5.50;;;3.10;;
17496;SDS011;62150;43.582;1.456;2023-09-08T16:53:00;5.38;;;3.13;;
17496;SDS011;62150;43.582;1.456;2023-09-08T16:55:28;7.00;;;3.45;;
17496;SDS011;62150;43.582;1.456;2023-09-08T16:57:55;5.10;;;3.17;;
17496;SDS011;62150;43.582;1.456;2023-09-08T17:00:23;6.15;;;3.45;;
17496;SDS011;62150;43.582;1.456;2023-09-08T17:02:50;5.88;;;3.38;;
17496;SDS011;62150;43.582;1.456;2023-09-08T17:05:18;5.40;;;3.17;;
17496;SDS011;62150;43.582;1.456;2023-09-08T17:07:45;6.40;;;3.25;;
17496;SDS011;62150;43.582;1.456;2023-09-08T17:10:14;9.32;;;5.05;;
17496;SDS011;62150;43.582;1.456;2023-09-08T17:12:42;7.88;;;3.97;;
17496;SDS011;62150;43.582;1.456;2023-09-08T17:15:10;6.18;;;3.40;;
17496;SDS011;62150;43.582;1.456;2023-09-08T17:17:37;6.65;;;3.45;;
17496;SDS011;62150;43.582;1.456;2023-09-08T17:20:06;5.75;;;3.30;;
17496;SDS011;62150;43.582;1.456;2023-09-08T17:22:34;7.25;;;3.58;;
17496;SDS011;62150;43.582;1.456;2023-09-08T17:25:01;5.55;;;3.20;;
17496;SDS011;62150;43.582;1.456;2023-09-08T17:27:30;5.57;;;3.20;;
17496;SDS011;62150;43.582;1.456;2023-09-08T17:29:58;7.15;;;3.58;;
17496;SDS011;62150;43.582;1.456;2023-09-08T17:32:26;5.35;;;3.17;;
17496;SDS011;62150;43.582;1.456;2023-09-08T17:34:53;5.28;;;3.30;;
17496;SDS011;62150;43.582;1.456;2023-09-08T17:37:21;6.32;;;3.65;;
17496;SDS011;62150;43.582;1.456;2023-09-08T17:39:49;7.53;;;3.80;;
17496;SDS011;62150;43.582;1.456;2023-09-08T17:42:16;7.90;;;3.63;;
17496;SDS011;62150;43.582;1.456;2023-09-08T17:44:45;7.97;;;3.97;;
17496;SDS011;62150;43.582;1.456;2023-09-08T17:47:13;6.30;;;3.72;;
17496;SDS011;62150;43.582;1.456;2023-09-08T17:49:40;6.57;;;3.60;;
17496;SDS011;62150;43.582;1.456;2023-09-08T17:52:08;6.63;;;3.50;;
17496;SDS011;62150;43.582;1.456;2023-09-08T17:54:36;6.30;;;3.55;;
17496;SDS011;62150;43.582;1.456;2023-09-08T17:57:03;7.03;;;3.50;;
17496;SDS011;62150;43.582;1.456;2023-09-08T17:59:31;6.10;;;3.45;;
17496;SDS011;62150;43.582;1.456;2023-09-08T18:02:09;6.40;;;3.70;;
17496;SDS011;62150;43.582;1.456;2023-09-08T18:04:36;9.70;;;5.00;;
17496;SDS011;62150;43.582;1.456;2023-09-08T18:07:06;7.10;;;3.95;;
17496;SDS011;62150;43.582;1.456;2023-09-08T18:09:33;9.55;;;4.65;;
17496;SDS011;62150;43.582;1.456;2023-09-08T18:12:01;7.80;;;4.50;;
17496;SDS011;62150;43.582;1.456;2023-09-08T18:14:30;8.98;;;4.80;;
17496;SDS011;62150;43.582;1.456;2023-09-08T18:17:03;6.97;;;4.05;;
17496;SDS011;62150;43.582;1.456;2023-09-08T18:19:34;9.02;;;4.07;;
17496;SDS011;62150;43.582;1.456;2023-09-08T18:22:02;6.63;;;3.80;;
17496;SDS011;62150;43.582;1.456;2023-09-08T18:24:30;6.93;;;3.85;;
17496;SDS011;62150;43.582;1.456;2023-09-08T18:26:58;8.02;;;3.60;;
17496;SDS011;62150;43.582;1.456;2023-09-08T18:29:26;8.27;;;3.83;;
17496;SDS011;62150;43.582;1.456;2023-09-08T18:31:59;6.78;;;3.58;;
17496;SDS011;62150;43.582;1.456;2023-09-08T18:34:27;8.13;;;4.10;;
17496;SDS011;62150;43.582;1.456;2023-09-08T18:36:56;6.68;;;3.50;;
17496;SDS011;62150;43.582;1.456;2023-09-08T18:39:26;5.97;;;3.28;;
17496;SDS011;62150;43.582;1.456;2023-09-08T18:41:54;6.20;;;3.60;;
17496;SDS011;62150;43.582;1.456;2023-09-08T18:44:21;8.07;;;3.60;;
17496;SDS011;62150;43.582;1.456;2023-09-08T18:46:49;7.65;;;3.72;;
17496;SDS011;62150;43.582;1.456;2023-09-08T18:49:16;6.63;;;3.67;;
17496;SDS011;62150;43.582;1.456;2023-09-08T18:51:47;6.43;;;3.50;;
17496;SDS011;62150;43.582;1.456;2023-09-08T18:54:16;7.80;;;3.67;;
17496;SDS011;62150;43.582;1.456;2023-09-08T18:56:43;7.75;;;3.70;;
17496;SDS011;62150;43.582;1.456;2023-09-08T18:59:11;6.10;;;3.63;;
17496;SDS011;62150;43.582;1.456;2023-09-08T19:01:39;6.53;;;3.65;;
17496;SDS011;62150;43.582;1.456;2023-09-08T19:04:06;7.43;;;3.72;;
17496;SDS011;62150;43.582;1.456;2023-09-08T19:06:38;6.72;;;3.78;;
17496;SDS011;62150;43.582;1.456;2023-09-08T19:09:13;5.97;;;3.38;;
17496;SDS011;62150;43.582;1.456;2023-09-08T19:11:42;6.45;;;3.58;;
17496;SDS011;62150;43.582;1.456;2023-09-08T19:14:09;5.88;;;3.53;;
17496;SDS011;62150;43.582;1.456;2023-09-08T19:16:40;6.10;;;3.33;;
17496;SDS011;62150;43.582;1.456;2023-09-08T19:19:09;5.85;;;3.40;;
17496;SDS011;62150;43.582;1.456;2023-09-08T19:21:36;6.80;;;3.50;;
17496;SDS011;62150;43.582;1.456;2023-09-08T19:24:05;6.32;;;3.50;;
17496;SDS011;62150;43.582;1.456;2023-09-08T19:26:33;8.07;;;3.80;;
17496;SDS011;62150;43.582;1.456;2023-09-08T19:29:02;6.13;;;3.35;;
17496;SDS011;62150;43.582;1.456;2023-09-08T19:31:29;5.97;;;3.42;;
17496;SDS011;62150;43.582;1.456;2023-09-08T19:33:57;6.32;;;3.40;;
17496;SDS011;62150;43.582;1.456;2023-09-08T19:36:25;7.03;;;3.40;;
17496;SDS011;62150;43.582;1.456;2023-09-08T19:38:53;6.43;;;3.30;;
17496;SDS011;62150;43.582;1.456;2023-09-08T19:41:20;5.93;;;3.20;;
17496;SDS011;62150;43.582;1.456;2023-09-08T19:43:49;5.60;;;3.50;;
17496;SDS011;62150;43.582;1.456;2023-09-08T19:46:18;8.30;;;3.40;;
17496;SDS011;62150;43.582;1.456;2023-09-08T19:48:45;7.20;;;3.53;;
17496;SDS011;62150;43.582;1.456;2023-09-08T19:51:15;5.70;;;3.35;;
17496;SDS011;62150;43.582;1.456;2023-09-08T19:53:43;6.32;;;3.53;;
17496;SDS011;62150;43.582;1.456;2023-09-08T19:56:11;5.93;;;3.38;;
17496;SDS011;62150;43.582;1.456;2023-09-08T19:58:38;5.50;;;3.25;;
17496;SDS011;62150;43.582;1.456;2023-09-08T20:01:06;5.78;;;3.33;;
17496;SDS011;62150;43.582;1.456;2023-09-08T20:03:39;6.22;;;3.60;;
17496;SDS011;62150;43.582;1.456;2023-09-08T20:06:07;6.57;;;3.38;;
17496;SDS011;62150;43.582;1.456;2023-09-08T20:08:38;6.25;;;3.65;;
17496;SDS011;62150;43.582;1.456;2023-09-08T20:11:07;6.07;;;3.60;;
17496;SDS011;62150;43.582;1.456;2023-09-08T20:13:35;6.95;;;3.60;;
17496;SDS011;62150;43.582;1.456;2023-09-08T20:16:03;6.28;;;3.67;;